Time;durP1;ratioP1;P1;durP2;ratioP2;P2;SDS_P1;SDS_P2;PMS_P1;PMS_P2;Temp;Humidity;BMP_temperature;BMP_pressure;BME280_temperature;BME280_humidity;BME280_pressure;Samples;Min_cycle;Max_cycle;Signal;HPM_P1;HPM_P2
2021/12/17 00:01:00;;;;;;;49.15;25.38;;;9.40;99.90;;;;;;5067912;28;20065;-61
2021/12/17 00:03:43;;;;;;;51.65;25.73;;;9.30;99.90;;;;;;5070442;28;20029;-61
2021/12/17 00:08:41;;;;;;;47.40;25.63;;;9.20;99.90;;;;;;5075379;28;20110;-61
2021/12/17 00:11:08;;;;;;;55.08;27.25;;;9.20;99.90;;;;;;5076333;28;20028;-61
2021/12/17 00:13:35;;;;;;;49.85;26.35;;;9.10;99.90;;;;;;5070619;28;20035;-61
2021/12/17 00:16:01;;;;;;;42.13;21.75;;;9.10;99.90;;;;;;5073006;28;20032;-61
2021/12/17 00:18:40;;;;;;;41.10;20.20;;;9.10;99.90;;;;;;5063243;28;20454;-61
2021/12/17 00:48:35;;;;;;;33.13;13.95;;;9.40;99.90;;;;;;5071861;28;20040;-61
2021/12/17 00:54:18;;;;;;;30.23;13.85;;;9.40;99.90;;;;;;5074233;28;20548;-61
2021/12/17 00:56:44;;;;;;;26.80;12.02;;;9.40;99.90;;;;;;5076978;28;20550;-61
2021/12/17 00:59:10;;;;;;;31.92;13.65;;;9.40;99.90;;;;;;5073977;28;20533;-61
2021/12/17 01:01:36;;;;;;;36.47;15.85;;;9.40;99.90;;;;;;5071227;28;20120;-61
2021/12/17 01:04:01;;;;;;;30.73;13.07;;;9.40;99.90;;;;;;5076876;28;20020;-61
2021/12/17 01:06:27;;;;;;;46.67;21.05;;;9.50;99.90;;;;;;5071002;28;20399;-61
2021/12/17 01:08:53;;;;;;;58.60;25.13;;;9.40;99.90;;;;;;5087223;28;20085;-61
2021/12/17 01:11:19;;;;;;;48.10;23.40;;;9.30;99.90;;;;;;5083917;28;20032;-61
2021/12/17 01:13:46;;;;;;;42.53;21.50;;;9.20;99.90;;;;;;5075027;28;20024;-61
2021/12/17 01:16:12;;;;;;;43.22;21.92;;;9.20;99.90;;;;;;5079271;28;20035;-61
2021/12/17 01:19:06;;;;;;;41.20;17.80;;;9.20;99.90;;;;;;5075690;28;20052;-61
2021/12/17 01:24:34;;;;;;;31.08;15.07;;;9.20;99.90;;;;;;5073943;28;20334;-61
2021/12/17 01:35:23;;;;;;;26.80;14.00;;;9.40;99.90;;;;;;5072420;28;20158;-61
2021/12/17 01:43:12;;;;;;;27.05;12.98;;;9.40;99.90;;;;;;5074888;28;20036;-61
2021/12/17 01:45:40;;;;;;;29.08;13.25;;;9.50;99.90;;;;;;5074887;28;20016;-61
2021/12/17 01:48:12;;;;;;;31.90;14.57;;;9.50;99.90;;;;;;5071305;28;20054;-61
2021/12/17 01:56:49;;;;;;;32.13;14.00;;;9.50;99.90;;;;;;4990900;28;20030;-61
2021/12/17 01:59:24;;;;;;;29.27;13.57;;;9.50;99.90;;;;;;5051345;28;20040;-61
2021/12/17 02:02:01;;;;;;;33.83;14.60;;;9.50;99.90;;;;;;5075687;28;20016;-61
2021/12/17 02:04:27;;;;;;;31.58;13.73;;;9.50;99.90;;;;;;5069903;28;20531;-61
2021/12/17 02:06:52;;;;;;;35.33;15.38;;;9.50;99.90;;;;;;5068752;28;20062;-61
2021/12/17 02:20:40;;;;;;;35.63;15.75;;;9.40;99.90;;;;;;5072744;28;20063;-61
2021/12/17 02:28:57;;;;;;;30.70;13.63;;;9.40;99.90;;;;;;5069826;28;20039;-61
2021/12/17 02:33:48;;;;;;;36.90;14.75;;;9.40;99.90;;;;;;5075759;28;20025;-61
2021/12/17 02:36:17;;;;;;;39.47;16.58;;;9.40;99.90;;;;;;5069419;28;20119;-61
2021/12/17 02:38:43;;;;;;;40.90;15.50;;;9.40;99.90;;;;;;5075723;28;20028;-61
2021/12/17 02:46:38;;;;;;;37.00;14.07;;;9.40;99.90;;;;;;5072084;28;20388;-61
2021/12/17 02:49:05;;;;;;;36.97;15.40;;;9.40;99.90;;;;;;5072718;28;20480;-61
2021/12/17 02:51:31;;;;;;;35.42;15.38;;;9.40;99.90;;;;;;5071997;28;20032;-61
2021/12/17 02:53:58;;;;;;;41.10;14.90;;;9.40;99.90;;;;;;5069188;28;20028;-61
2021/12/17 02:56:24;;;;;;;38.05;15.25;;;9.40;99.90;;;;;;5077392;28;20381;-61
2021/12/17 02:58:51;;;;;;;35.85;14.98;;;9.40;99.90;;;;;;5061088;28;20028;-61
2021/12/17 03:01:16;;;;;;;39.67;14.57;;;9.40;99.90;;;;;;5073180;28;20081;-61
2021/12/17 03:03:44;;;;;;;37.97;15.45;;;9.40;99.90;;;;;;5074664;28;20020;-61
2021/12/17 03:06:10;;;;;;;36.88;13.88;;;9.40;99.90;;;;;;5071857;28;20054;-61
2021/12/17 03:08:36;;;;;;;36.03;13.90;;;9.40;99.90;;;;;;5075390;28;20075;-61
2021/12/17 03:11:03;;;;;;;38.95;13.68;;;9.40;99.90;;;;;;5070419;28;20369;-61
2021/12/17 03:13:33;;;;;;;37.80;13.85;;;9.50;99.90;;;;;;5071803;28;20033;-61
2021/12/17 03:16:36;;;;;;;40.75;14.63;;;9.50;99.90;;;;;;5072333;28;20162;-61
2021/12/17 03:19:06;;;;;;;32.30;13.35;;;9.50;99.90;;;;;;5070894;28;20507;-61
2021/12/17 03:24:18;;;;;;;37.00;12.70;;;9.50;99.90;;;;;;5074458;28;20032;-61
2021/12/17 03:26:45;;;;;;;36.70;14.60;;;9.50;99.90;;;;;;5074333;28;20045;-61
2021/12/17 03:29:11;;;;;;;37.13;14.10;;;9.50;99.90;;;;;;5070075;28;20059;-61
2021/12/17 03:31:37;;;;;;;41.35;16.02;;;9.50;99.90;;;;;;5059157;28;20052;-61
2021/12/17 03:34:16;;;;;;;39.92;14.73;;;9.50;99.90;;;;;;5071309;28;20029;-61
2021/12/17 03:36:42;;;;;;;38.60;14.30;;;9.50;99.90;;;;;;5074458;28;20020;-61
2021/12/17 03:39:08;;;;;;;36.70;14.80;;;9.40;99.90;;;;;;5058669;28;20028;-61
2021/12/17 03:41:39;;;;;;;37.17;14.60;;;9.50;99.90;;;;;;5071388;28;20044;-61
2021/12/17 03:44:06;;;;;;;45.97;16.77;;;9.50;99.90;;;;;;5077026;28;20025;-61
2021/12/17 03:46:32;;;;;;;49.85;18.48;;;9.40;99.90;;;;;;5076898;28;20034;-61
2021/12/17 03:48:58;;;;;;;48.83;19.23;;;9.50;99.90;;;;;;5071133;28;20150;-61
2021/12/17 03:51:24;;;;;;;47.53;16.90;;;9.40;99.90;;;;;;5071413;28;20120;-61
2021/12/17 03:53:54;;;;;;;42.67;16.80;;;9.40;99.90;;;;;;5076795;28;20016;-61
2021/12/17 03:56:21;;;;;;;45.00;15.68;;;9.40;99.90;;;;;;5073867;28;20027;-61
2021/12/17 03:58:49;;;;;;;49.13;18.35;;;9.40;99.90;;;;;;5082561;28;20067;-61
2021/12/17 04:01:14;;;;;;;48.33;19.00;;;9.40;99.90;;;;;;5091672;28;20027;-61
2021/12/17 04:03:40;;;;;;;40.53;15.10;;;9.40;99.90;;;;;;5075066;28;20013;-61
2021/12/17 04:06:06;;;;;;;39.35;15.75;;;9.40;99.90;;;;;;5070801;28;20027;-61
2021/12/17 04:08:40;;;;;;;41.10;15.05;;;9.40;99.90;;;;;;5074519;28;20527;-61
2021/12/17 04:11:07;;;;;;;44.03;14.98;;;9.40;99.90;;;;;;5052368;28;20032;-61
2021/12/17 04:13:38;;;;;;;37.15;14.23;;;9.40;99.90;;;;;;5071168;28;20025;-61
2021/12/17 04:16:09;;;;;;;45.25;15.68;;;9.40;99.90;;;;;;5071581;28;20020;-61
2021/12/17 04:18:37;;;;;;;39.35;14.43;;;9.40;99.90;;;;;;5073004;28;20037;-61
2021/12/17 04:21:09;;;;;;;37.40;13.98;;;9.40;99.90;;;;;;5052755;28;20050;-61
2021/12/17 04:23:35;;;;;;;36.92;13.70;;;9.40;99.90;;;;;;5070860;28;20017;-61
2021/12/17 04:26:00;;;;;;;41.70;15.13;;;9.50;99.90;;;;;;5070831;28;20031;-61
2021/12/17 04:28:36;;;;;;;34.60;13.57;;;9.40;99.90;;;;;;5073394;28;20021;-61
2021/12/17 04:31:02;;;;;;;41.67;15.80;;;9.50;99.90;;;;;;5073552;28;20017;-61
2021/12/17 04:33:27;;;;;;;42.35;14.05;;;9.40;99.90;;;;;;5070582;28;20104;-61
2021/12/17 04:35:53;;;;;;;39.65;15.52;;;9.40;99.90;;;;;;5070530;28;20175;-61
2021/12/17 04:38:21;;;;;;;38.78;15.98;;;9.50;99.90;;;;;;5071913;28;20071;-61
2021/12/17 04:40:49;;;;;;;41.45;16.10;;;9.50;99.90;;;;;;5070642;28;20016;-61
2021/12/17 04:43:31;;;;;;;42.85;14.90;;;9.50;99.90;;;;;;5073450;28;20422;-61
2021/12/17 04:46:28;;;;;;;42.78;15.35;;;9.50;99.90;;;;;;5070736;28;20024;-61
2021/12/17 04:59:38;;;;;;;46.00;17.58;;;9.40;99.90;;;;;;5073293;28;20031;-61
2021/12/17 05:02:04;;;;;;;48.78;17.92;;;9.40;99.90;;;;;;5070427;28;20020;-62
2021/12/17 05:04:29;;;;;;;43.83;16.70;;;9.40;99.90;;;;;;5073038;28;20388;-61
2021/12/17 05:06:55;;;;;;;41.55;14.95;;;9.40;99.90;;;;;;5077034;28;20031;-61
2021/12/17 05:09:38;;;;;;;39.90;14.77;;;9.40;99.90;;;;;;5070243;28;20510;-61
2021/12/17 05:21:00;;;;;;;40.08;14.38;;;9.40;99.90;;;;;;5070289;28;20094;-61
2021/12/17 05:23:04;;;;;;;34.08;13.80;;;9.40;99.90;;;;;;5063759;28;20396;-61
2021/12/17 05:26:01;;;;;;;39.65;14.55;;;9.40;99.90;;;;;;5068649;28;20016;-61
2021/12/17 05:28:27;;;;;;;38.58;13.05;;;9.40;99.90;;;;;;5067848;28;20444;-61
2021/12/17 05:30:55;;;;;;;32.25;13.05;;;9.40;99.90;;;;;;5076220;28;20052;-61
2021/12/17 05:33:21;;;;;;;37.67;14.68;;;9.40;99.90;;;;;;5076819;28;20048;-61
2021/12/17 05:35:47;;;;;;;36.28;13.70;;;9.40;99.90;;;;;;5082086;28;20031;-61
2021/12/17 05:38:15;;;;;;;35.67;13.20;;;9.40;99.90;;;;;;5073424;28;20036;-61
2021/12/17 05:40:41;;;;;;;29.73;12.50;;;9.40;99.90;;;;;;5073591;28;20012;-61
2021/12/17 05:43:07;;;;;;;33.47;12.57;;;9.40;99.90;;;;;;5073474;28;20013;-61
2021/12/17 05:45:37;;;;;;;28.45;11.35;;;9.40;99.90;;;;;;5074715;28;20477;-61
2021/12/17 05:48:08;;;;;;;33.80;11.98;;;9.40;99.90;;;;;;5054599;28;20103;-61
2021/12/17 05:50:36;;;;;;;37.03;15.07;;;9.40;99.90;;;;;;5076168;28;20565;-61
2021/12/17 05:53:03;;;;;;;33.58;12.77;;;9.40;99.90;;;;;;5073194;28;20089;-61
2021/12/17 05:55:29;;;;;;;33.83;13.20;;;9.40;99.90;;;;;;5072574;28;20024;-62
2021/12/17 05:57:54;;;;;;;35.67;13.68;;;9.40;99.90;;;;;;5073058;28;20073;-62
2021/12/17 06:00:21;;;;;;;33.95;12.85;;;9.40;99.90;;;;;;5065896;28;20027;-61
2021/12/17 06:02:47;;;;;;;22.17;9.82;;;9.40;99.90;;;;;;5068853;28;20384;-61
2021/12/17 06:05:13;;;;;;;39.83;14.73;;;9.40;99.90;;;;;;5070213;28;20158;-61
2021/12/17 06:07:39;;;;;;;36.83;13.75;;;9.40;99.90;;;;;;5069541;28;20537;-61
2021/12/17 06:10:09;;;;;;;39.47;15.55;;;9.40;99.90;;;;;;5072987;28;20020;-61
2021/12/17 06:12:35;;;;;;;33.58;13.93;;;9.40;99.90;;;;;;5073407;28;20384;-62
2021/12/17 06:15:12;;;;;;;;;;;;;;;;;;;;;
2021/12/17 06:17:39;;;;;;;30.80;12.18;;;9.40;99.90;;;;;;5073627;28;20050;-61
2021/12/17 06:20:07;;;;;;;29.05;11.98;;;9.40;99.90;;;;;;5071097;28;20036;-61
2021/12/17 06:22:33;;;;;;;27.55;11.48;;;9.40;99.90;;;;;;5051901;28;20049;-61
2021/12/17 06:24:58;;;;;;;26.65;10.55;;;9.40;99.90;;;;;;5077175;28;20103;-61
2021/12/17 06:27:24;;;;;;;27.90;11.50;;;9.40;99.90;;;;;;5070787;28;20031;-61
2021/12/17 06:30:05;;;;;;;25.67;11.07;;;9.40;99.90;;;;;;5073214;28;20759;-61
2021/12/17 06:32:31;;;;;;;27.02;11.02;;;9.40;99.90;;;;;;5075832;28;20106;-61
2021/12/17 06:34:56;;;;;;;23.52;9.40;;;9.40;99.90;;;;;;5069708;28;20058;-61
2021/12/17 06:37:22;;;;;;;20.52;9.43;;;9.40;99.90;;;;;;5074598;28;20455;-61
2021/12/17 06:40:05;;;;;;;28.05;10.10;;;9.40;99.90;;;;;;5068391;28;20392;-61
2021/12/17 06:42:30;;;;;;;23.25;9.10;;;9.40;99.90;;;;;;5070861;28;20105;-61
2021/12/17 06:45:01;;;;;;;22.30;9.00;;;9.40;99.90;;;;;;5075402;28;20457;-61
2021/12/17 07:07:04;;;;;;;20.50;8.80;;;9.30;99.90;;;;;;5086362;28;20034;-61
2021/12/17 07:36:05;;;;;;;;;;;;;;;;;;;;;
2021/12/17 07:39:36;;;;;;;;;;;;;;;;;;;;;
2021/12/17 07:42:02;;;;;;;18.80;7.90;;;9.30;99.90;;;;;;4952990;28;20050;-61
2021/12/17 07:44:28;;;;;;;16.23;7.25;;;9.30;99.90;;;;;;5074191;28;20032;-61
2021/12/17 07:46:54;;;;;;;16.85;6.97;;;9.30;99.90;;;;;;5074405;28;20020;-61
2021/12/17 07:49:43;;;;;;;20.08;7.63;;;9.30;99.90;;;;;;5092310;28;20103;-61
2021/12/17 07:55:41;;;;;;;17.23;7.30;;;9.30;99.90;;;;;;5078727;28;20058;-61
2021/12/17 07:58:06;;;;;;;15.77;7.53;;;9.20;99.90;;;;;;5092349;28;20028;-61
2021/12/17 08:00:32;;;;;;;19.60;8.25;;;9.20;99.90;;;;;;5091995;28;20047;-61
2021/12/17 08:02:58;;;;;;;21.85;8.57;;;9.20;99.90;;;;;;5092367;28;20497;-61
2021/12/17 08:05:39;;;;;;;17.38;7.57;;;9.30;99.90;;;;;;5073963;28;20025;-61
2021/12/17 08:08:05;;;;;;;17.92;7.72;;;9.30;99.90;;;;;;5091868;28;20027;-61
2021/12/17 08:10:31;;;;;;;20.70;7.95;;;9.30;99.90;;;;;;5073709;28;20035;-61
2021/12/17 08:12:57;;;;;;;18.52;7.57;;;9.30;99.90;;;;;;5092058;28;20107;-61
2021/12/17 08:15:39;;;;;;;18.52;7.32;;;9.30;99.90;;;;;;5092075;28;20103;-62
2021/12/17 08:26:21;;;;;;;17.25;7.43;;;9.30;99.90;;;;;;5092095;28;20116;-61
2021/12/17 08:31:36;;;;;;;17.70;7.18;;;9.30;99.90;;;;;;5072055;28;20089;-61
2021/12/17 08:34:04;;;;;;;19.92;7.78;;;9.30;99.90;;;;;;5089706;28;20120;-61
2021/12/17 08:36:30;;;;;;;20.25;8.43;;;9.30;99.90;;;;;;5091817;28;20028;-62
2021/12/17 08:39:01;;;;;;;18.20;7.65;;;9.30;99.90;;;;;;5091559;28;20037;-62
2021/12/17 08:41:39;;;;;;;18.45;7.50;;;9.30;99.90;;;;;;5091515;28;20395;-62
2021/12/17 08:44:04;;;;;;;19.83;8.40;;;9.40;99.90;;;;;;5091639;28;20384;-61
2021/12/17 08:46:30;;;;;;;21.88;8.57;;;9.30;99.90;;;;;;5091688;28;20503;-61
2021/12/17 08:48:56;;;;;;;17.27;7.82;;;9.40;99.90;;;;;;5091653;28;20032;-61
2021/12/17 08:51:21;;;;;;;19.25;8.75;;;9.30;99.90;;;;;;5091351;28;20031;-62
2021/12/17 08:53:47;;;;;;;18.63;8.40;;;9.30;99.90;;;;;;5091549;28;20090;-62
2021/12/17 08:56:18;;;;;;;22.30;8.98;;;9.30;99.90;;;;;;5091592;28;20028;-62
2021/12/17 08:58:44;;;;;;;18.92;8.35;;;9.30;99.90;;;;;;5074087;28;20056;-61
2021/12/17 09:01:10;;;;;;;18.90;8.90;;;9.30;99.90;;;;;;5090317;28;20475;-61
2021/12/17 09:03:36;;;;;;;18.50;8.30;;;9.30;99.90;;;;;;5092573;28;20035;-62
2021/12/17 09:06:02;;;;;;;16.90;8.32;;;9.30;99.90;;;;;;5093416;28;20020;-61
2021/12/17 09:08:27;;;;;;;18.48;8.45;;;9.30;99.90;;;;;;5095072;28;20063;-61
2021/12/17 09:13:46;;;;;;;19.60;8.25;;;9.40;99.90;;;;;;5080645;28;20040;-61
2021/12/17 09:16:12;;;;;;;21.50;9.23;;;9.40;99.90;;;;;;5094829;28;20028;-61
2021/12/17 09:18:38;;;;;;;22.30;9.43;;;9.40;99.90;;;;;;5092001;28;20044;-61
2021/12/17 09:21:03;;;;;;;22.80;9.38;;;9.40;99.90;;;;;;5094680;28;20020;-61
2021/12/17 09:23:29;;;;;;;21.20;9.40;;;9.40;99.90;;;;;;5095106;28;20035;-61
2021/12/17 09:25:54;;;;;;;20.85;8.77;;;9.40;99.90;;;;;;5095667;28;20024;-61
2021/12/17 09:28:20;;;;;;;20.55;8.98;;;9.40;99.90;;;;;;5094940;28;20497;-61
2021/12/17 09:30:46;;;;;;;20.45;8.50;;;9.40;99.90;;;;;;5095172;28;20035;-61
2021/12/17 09:33:11;;;;;;;17.85;8.85;;;9.50;99.90;;;;;;5076714;28;20080;-61
2021/12/17 09:35:37;;;;;;;16.05;7.95;;;9.50;99.90;;;;;;5095039;28;20032;-61
2021/12/17 09:38:02;;;;;;;16.63;8.07;;;9.50;99.90;;;;;;5076741;28;20166;-61
2021/12/17 09:40:28;;;;;;;17.08;8.07;;;9.50;99.90;;;;;;5094539;28;20122;-62
2021/12/17 09:43:32;;;;;;;14.20;6.93;;;9.50;99.90;;;;;;5094679;28;20484;-62
2021/12/17 09:49:23;;;;;;;18.35;8.60;;;9.60;99.90;;;;;;5085365;28;20503;-61
2021/12/17 09:51:48;;;;;;;16.65;7.55;;;9.60;99.90;;;;;;5067591;28;20131;-61
2021/12/17 09:54:14;;;;;;;14.63;6.90;;;9.60;99.90;;;;;;5075277;28;20460;-61
2021/12/17 09:56:40;;;;;;;15.43;7.50;;;9.60;99.90;;;;;;5072627;28;20035;-61
2021/12/17 09:59:06;;;;;;;17.48;7.68;;;9.60;99.90;;;;;;5087685;28;20024;-61
2021/12/17 10:01:39;;;;;;;18.27;7.25;;;9.60;99.90;;;;;;5092215;28;20391;-61
2021/12/17 10:04:18;;;;;;;17.23;7.85;;;9.60;99.90;;;;;;5090040;28;20016;-62
2021/12/17 10:06:44;;;;;;;16.15;6.57;;;9.60;99.90;;;;;;5091116;28;20024;-62
2021/12/17 10:09:10;;;;;;;12.25;5.97;;;9.60;99.90;;;;;;5093255;28;20023;-62
2021/12/17 10:11:36;;;;;;;13.23;4.95;;;9.60;99.90;;;;;;5090166;28;20431;-61
2021/12/17 10:14:22;;;;;;;8.82;4.50;;;9.60;99.90;;;;;;5087516;28;20453;-61
2021/12/17 10:17:13;;;;;;;10.00;4.63;;;9.60;99.90;;;;;;5072365;28;20064;-61
2021/12/17 10:19:50;;;;;;;10.55;4.05;;;9.60;99.90;;;;;;5063510;28;20043;-62
2021/12/17 10:22:18;;;;;;;9.65;4.35;;;9.60;99.90;;;;;;5055523;28;20029;-61
2021/12/17 10:24:57;;;;;;;9.32;5.07;;;9.60;99.90;;;;;;5059582;28;20026;-62
2021/12/17 10:27:27;;;;;;;9.43;4.22;;;9.60;99.90;;;;;;5059046;28;20032;-62
2021/12/17 10:29:53;;;;;;;9.10;4.63;;;9.50;99.90;;;;;;5060554;28;20024;-61
2021/12/17 10:32:20;;;;;;;9.00;4.50;;;9.60;99.90;;;;;;5055916;28;20040;-61
2021/12/17 10:35:13;;;;;;;10.77;4.55;;;9.50;99.90;;;;;;5058101;28;20392;-61
2021/12/17 10:37:52;;;;;;;10.77;5.00;;;9.60;99.90;;;;;;5052295;28;20108;-62
2021/12/17 10:40:20;;;;;;;8.57;3.92;;;9.60;99.90;;;;;;5063585;28;20031;-61
2021/12/17 10:43:15;;;;;;;7.50;3.63;;;9.60;99.90;;;;;;5072038;28;20569;-62
2021/12/17 10:45:56;;;;;;;6.95;3.60;;;9.70;99.90;;;;;;5066252;28;20028;-62
2021/12/17 10:54:30;;;;;;;8.23;3.77;;;9.70;99.90;;;;;;5061415;28;20033;-61
2021/12/17 10:56:56;;;;;;;8.95;4.60;;;9.60;99.90;;;;;;5073487;28;20371;-61
2021/12/17 10:59:34;;;;;;;8.85;4.38;;;9.60;99.90;;;;;;5072829;28;20489;-61
2021/12/17 11:02:06;;;;;;;7.18;4.07;;;9.60;99.90;;;;;;5054426;28;20079;-62
2021/12/17 11:04:51;;;;;;;9.77;4.38;;;9.50;99.90;;;;;;5052909;28;20453;-61
2021/12/17 11:07:19;;;;;;;7.30;3.80;;;9.50;99.90;;;;;;5060919;28;20020;-61
2021/12/17 11:09:53;;;;;;;6.57;3.50;;;9.50;99.90;;;;;;5072927;28;20423;-62
2021/12/17 11:12:32;;;;;;;6.80;3.92;;;9.50;99.90;;;;;;5072222;28;20029;-61
2021/12/17 11:15:14;;;;;;;7.63;3.67;;;9.50;99.90;;;;;;5072633;28;20056;-61
2021/12/17 11:17:56;;;;;;;7.72;3.63;;;9.50;99.90;;;;;;5079084;28;20509;-61
2021/12/17 11:20:52;;;;;;;4.65;2.83;;;9.50;99.90;;;;;;5092536;28;20073;-61
2021/12/17 11:23:18;;;;;;;6.78;3.17;;;9.60;99.90;;;;;;5092957;28;20031;-61
2021/12/17 11:25:48;;;;;;;4.38;2.50;;;9.50;99.90;;;;;;5074067;28;20020;-61
2021/12/17 11:28:14;;;;;;;5.10;2.90;;;9.50;99.90;;;;;;5067367;28;20020;-61
2021/12/17 11:31:10;;;;;;;;;;;;;;;;;;;;;
2021/12/17 11:33:37;;;;;;;4.68;2.58;;;9.50;99.90;;;;;;5082321;28;20009;-61
2021/12/17 11:36:03;;;;;;;3.60;2.28;;;9.50;99.90;;;;;;5080759;28;20019;-61
2021/12/17 11:38:45;;;;;;;3.15;1.73;;;9.40;99.90;;;;;;5086387;28;20032;-61
2021/12/17 11:41:23;;;;;;;4.30;1.77;;;9.50;99.90;;;;;;5085425;28;20020;-61
2021/12/17 11:43:57;;;;;;;2.25;1.45;;;9.50;99.90;;;;;;5092212;28;20053;-61
2021/12/17 11:46:28;;;;;;;2.33;1.27;;;9.50;99.90;;;;;;5092192;28;20031;-61
2021/12/17 11:49:00;;;;;;;2.53;1.50;;;9.50;99.90;;;;;;5092714;28;20028;-61
2021/12/17 11:51:32;;;;;;;1.85;1.10;;;9.50;99.90;;;;;;5092285;28;20035;-61
2021/12/17 11:54:04;;;;;;;1.73;1.10;;;9.60;99.90;;;;;;5092234;28;20035;-61
2021/12/17 11:56:47;;;;;;;2.13;1.10;;;9.60;99.90;;;;;;5091933;28;20050;-61
2021/12/17 11:59:25;;;;;;;1.67;1.02;;;9.60;99.90;;;;;;5087919;28;20028;-61
2021/12/17 12:02:05;;;;;;;1.40;0.82;;;9.60;99.90;;;;;;5089959;28;20096;-60
2021/12/17 12:04:34;;;;;;;;;;;9.60;99.90;;;;;;5088531;28;20040;-60
2021/12/17 12:07:02;;;;;;;1.52;0.70;;;9.60;99.90;;;;;;5088484;28;19938;-60
2021/12/17 12:09:56;;;;;;;1.02;0.75;;;9.50;99.90;;;;;;5086773;28;20090;-61
2021/12/17 12:12:27;;;;;;;1.80;0.80;;;9.60;99.90;;;;;;5082934;28;20430;-60
2021/12/17 12:14:53;;;;;;;1.00;0.60;;;9.60;99.90;;;;;;5087732;28;20032;-60
2021/12/17 12:17:57;;;;;;;1.58;0.80;;;9.60;99.90;;;;;;5086311;28;20040;-60
2021/12/17 12:20:44;;;;;;;1.20;0.80;;;9.70;99.90;;;;;;5088486;28;20111;-61
2021/12/17 12:23:31;;;;;;;2.03;0.80;;;9.70;99.90;;;;;;5084066;28;20042;-61
2021/12/17 12:26:08;;;;;;;1.50;0.50;;;9.60;99.90;;;;;;5090720;28;20028;-61
2021/12/17 12:28:48;;;;;;;0.93;0.50;;;9.60;99.90;;;;;;5090752;28;20067;-60
2021/12/17 12:31:17;;;;;;;1.20;0.70;;;9.70;99.90;;;;;;5087700;28;20583;-61
2021/12/17 12:34:05;;;;;;;1.75;1.00;;;9.60;99.90;;;;;;5087315;28;20032;-60
2021/12/17 12:36:55;;;;;;;1.85;0.88;;;9.60;99.90;;;;;;5089334;28;20020;-60
2021/12/17 12:39:31;;;;;;;1.63;0.80;;;9.60;99.90;;;;;;5074834;28;20028;-61
2021/12/17 12:42:16;;;;;;;2.00;0.77;;;9.60;99.90;;;;;;5094787;28;20051;-61
2021/12/17 12:44:42;;;;;;;2.55;0.70;;;9.70;99.90;;;;;;5076531;28;20020;-61
2021/12/17 12:47:13;;;;;;;2.15;0.95;;;9.70;99.90;;;;;;5094661;28;20028;-60
2021/12/17 12:49:44;;;;;;;2.20;0.90;;;9.60;99.90;;;;;;5094561;28;20020;-60
2021/12/17 12:52:23;;;;;;;2.22;1.00;;;9.60;99.90;;;;;;5093177;28;20465;-60
2021/12/17 12:54:55;;;;;;;1.85;1.05;;;9.70;99.90;;;;;;5093295;28;20431;-60
2021/12/17 12:57:51;;;;;;;2.00;0.90;;;9.70;99.90;;;;;;5089157;28;20035;-60
2021/12/17 13:03:47;;;;;;;1.92;1.23;;;9.70;99.90;;;;;;5088494;28;20032;-60
2021/12/17 13:06:17;;;;;;;2.42;1.40;;;9.70;99.90;;;;;;5094392;28;20026;-61
2021/12/17 13:08:50;;;;;;;5.70;2.40;;;9.60;99.90;;;;;;5091466;28;20800;-60
2021/12/17 13:11:18;;;;;;;3.63;1.77;;;9.60;99.90;;;;;;5094177;28;20038;-61
2021/12/17 13:13:50;;;;;;;2.58;1.45;;;9.60;99.90;;;;;;5091434;28;20107;-61
2021/12/17 13:16:34;;;;;;;3.28;2.05;;;9.60;99.90;;;;;;5093903;28;20028;-61
2021/12/17 13:21:59;;;;;;;2.83;1.65;;;9.50;99.90;;;;;;5088035;28;20022;-60
2021/12/17 13:24:30;;;;;;;2.75;1.77;;;9.50;99.90;;;;;;5086356;28;20024;-61
2021/12/17 13:27:01;;;;;;;2.95;2.03;;;9.50;99.90;;;;;;5091303;28;20016;-61
2021/12/17 13:29:30;;;;;;;3.45;1.98;;;9.50;99.90;;;;;;5093798;28;20032;-60
2021/12/17 13:32:00;;;;;;;2.40;1.70;;;9.50;99.90;;;;;;5090902;28;20476;-60
2021/12/17 13:34:28;;;;;;;3.42;2.03;;;9.50;99.90;;;;;;5093767;28;20519;-61
2021/12/17 13:37:06;;;;;;;2.83;2.20;;;9.60;99.90;;;;;;5091387;28;20024;-61
2021/12/17 13:39:35;;;;;;;3.20;2.00;;;9.60;99.90;;;;;;5091031;28;20092;-61
2021/12/17 13:42:02;;;;;;;3.28;2.10;;;9.70;99.90;;;;;;5094222;28;20050;-61
2021/12/17 13:44:44;;;;;;;2.63;2.03;;;9.70;99.90;;;;;;5093709;28;20383;-60
2021/12/17 13:48:21;;;;;;;3.55;2.38;;;9.70;99.90;;;;;;5091071;28;20027;-61
2021/12/17 13:50:41;;;;;;;2.90;1.90;;;9.80;99.90;;;;;;5088158;28;20039;-60
2021/12/17 13:53:14;;;;;;;4.07;1.98;;;9.70;99.90;;;;;;5088115;28;20046;-61
2021/12/17 13:55:46;;;;;;;2.05;1.60;;;9.80;99.90;;;;;;5088062;28;20058;-61
2021/12/17 13:58:14;;;;;;;2.08;1.50;;;9.80;99.90;;;;;;5085534;28;20023;-61
2021/12/17 14:00:42;;;;;;;3.67;1.63;;;9.80;99.90;;;;;;5074144;28;20024;-61
2021/12/17 14:03:14;;;;;;;3.05;1.90;;;9.90;99.90;;;;;;5073942;28;20040;-61
2021/12/17 14:05:44;;;;;;;2.60;2.15;;;9.90;99.90;;;;;;5074080;28;20480;-61
2021/12/17 14:08:15;;;;;;;2.22;1.85;;;9.90;99.90;;;;;;5089487;28;20380;-61
2021/12/17 14:10:42;;;;;;;2.70;2.00;;;9.90;99.90;;;;;;5094224;28;20104;-61
2021/12/17 14:13:25;;;;;;;2.83;1.77;;;10.00;99.90;;;;;;5076019;28;20438;-60
2021/12/17 14:15:53;;;;;;;2.35;1.63;;;10.00;99.90;;;;;;5094103;28;20081;-61
2021/12/17 14:18:23;;;;;;;3.05;2.17;;;10.00;99.90;;;;;;5058729;28;20044;-61
2021/12/17 14:20:54;;;;;;;3.35;2.40;;;9.90;99.90;;;;;;5071722;28;20508;-61
2021/12/17 14:23:25;;;;;;;3.28;2.00;;;9.90;99.90;;;;;;5082357;28;20119;-60
2021/12/17 14:25:55;;;;;;;2.88;1.60;;;9.90;99.90;;;;;;5076915;28;20024;-61
2021/12/17 14:28:32;;;;;;;3.47;2.33;;;9.90;99.90;;;;;;5073104;28;20543;-61
2021/12/17 14:31:12;;;;;;;3.28;2.45;;;9.90;99.90;;;;;;5071919;28;20476;-61
2021/12/17 14:33:46;;;;;;;2.65;1.90;;;9.90;99.90;;;;;;5072946;28;20038;-61
2021/12/17 14:36:17;;;;;;;2.45;1.77;;;9.80;99.90;;;;;;5073450;28;20035;-61
2021/12/17 14:38:54;;;;;;;2.50;1.90;;;9.80;99.90;;;;;;5048050;28;20028;-60
2021/12/17 14:41:44;;;;;;;3.83;1.88;;;9.80;99.90;;;;;;5091503;28;20031;-61
2021/12/17 14:44:35;;;;;;;2.55;1.73;;;9.90;99.90;;;;;;5089956;28;20357;-61
2021/12/17 14:47:20;;;;;;;3.47;2.22;;;9.80;99.90;;;;;;5088506;28;20016;-60
2021/12/17 15:01:09;;;;;;;4.20;2.63;;;9.80;99.90;;;;;;5089611;28;20020;-61
2021/12/17 15:06:35;;;;;;;;;;;;;;;;;;;;;
2021/12/17 15:08:59;;;;;;;4.35;2.80;;;9.80;99.90;;;;;;5085644;28;20513;-61
2021/12/17 15:12:01;;;;;;;3.00;2.42;;;9.80;99.90;;;;;;5088527;28;20024;-60
2021/12/17 15:14:27;;;;;;;4.63;3.10;;;9.80;99.90;;;;;;5053296;28;20399;-61
2021/12/17 15:16:53;;;;;;;2.85;2.25;;;9.70;99.90;;;;;;5092989;28;20452;-60
2021/12/17 15:19:19;;;;;;;3.97;2.00;;;9.70;99.90;;;;;;5092753;28;20549;-60
2021/12/17 15:21:44;;;;;;;3.58;2.03;;;9.70;99.90;;;;;;5092944;28;20028;-60
2021/12/17 15:24:10;;;;;;;3.53;2.25;;;9.70;99.90;;;;;;5089093;28;20012;-60
2021/12/17 15:26:35;;;;;;;2.75;2.20;;;9.70;99.90;;;;;;5073083;28;20044;-61
2021/12/17 15:29:01;;;;;;;2.88;1.70;;;9.70;99.90;;;;;;5089080;28;20078;-60
2021/12/17 15:31:26;;;;;;;2.60;2.00;;;9.70;99.90;;;;;;5089076;28;20491;-60
2021/12/17 15:33:52;;;;;;;5.63;3.08;;;9.70;99.90;;;;;;5074529;28;20490;-60
2021/12/17 15:36:40;;;;;;;5.00;2.97;;;9.70;99.90;;;;;;5092593;28;20032;-61
2021/12/17 15:39:07;;;;;;;3.70;2.75;;;9.70;99.90;;;;;;5092707;28;20028;-60
2021/12/17 15:41:32;;;;;;;3.60;2.78;;;9.70;99.90;;;;;;5092883;28;20069;-60
2021/12/17 15:43:58;;;;;;;5.85;3.58;;;9.70;99.90;;;;;;5092343;28;20028;-60
2021/12/17 15:46:23;;;;;;;4.55;3.50;;;9.60;99.90;;;;;;5092461;28;20020;-60
2021/12/17 15:48:49;;;;;;;3.30;2.65;;;9.60;99.90;;;;;;5092526;28;20036;-60
2021/12/17 15:51:43;;;;;;;3.80;3.22;;;9.70;99.90;;;;;;5090367;28;20094;-61
2021/12/17 15:54:09;;;;;;;4.22;2.88;;;9.70;99.90;;;;;;5091596;28;20502;-60
2021/12/17 15:56:35;;;;;;;3.70;2.58;;;9.70;99.90;;;;;;5092057;28;20024;-60
2021/12/17 15:59:00;;;;;;;3.60;2.63;;;9.70;99.90;;;;;;5092231;28;20491;-60
2021/12/17 16:01:26;;;;;;;5.30;3.25;;;9.70;99.90;;;;;;5092306;28;20024;-60
2021/12/17 16:03:51;;;;;;;3.70;2.60;;;9.70;99.90;;;;;;5090834;28;20028;-61
2021/12/17 16:06:17;;;;;;;3.65;3.03;;;9.70;99.90;;;;;;5091061;28;20020;-60
2021/12/17 16:08:49;;;;;;;3.45;2.80;;;9.70;99.90;;;;;;5091693;28;20063;-60
2021/12/17 16:22:07;;;;;;;4.35;3.58;;;9.60;99.90;;;;;;5089190;28;20026;-60
2021/12/17 16:24:32;;;;;;;4.28;3.63;;;9.50;99.90;;;;;;5090149;28;20103;-60
2021/12/17 16:26:58;;;;;;;3.88;3.10;;;9.60;99.90;;;;;;5091913;28;20112;-61
2021/12/17 16:29:24;;;;;;;3.90;3.42;;;9.60;99.90;;;;;;5091893;28;20095;-60
2021/12/17 16:32:03;;;;;;;4.05;3.65;;;9.60;99.90;;;;;;5091747;28;20494;-60
2021/12/17 16:34:29;;;;;;;3.83;3.30;;;9.60;99.90;;;;;;5087436;28;20483;-61
2021/12/17 16:36:54;;;;;;;4.03;3.38;;;9.60;99.90;;;;;;5091224;28;20111;-61
2021/12/17 16:39:20;;;;;;;6.25;4.05;;;9.60;99.90;;;;;;5073468;28;20476;-61
2021/12/17 16:41:46;;;;;;;5.18;3.90;;;9.60;99.90;;;;;;5073637;28;20369;-61